sensor_id;sensor_type;location;lat;lon;timestamp;P1;durP1;ratioP1;P2;durP2;ratioP2
16393;SDS011;8306;51.128;4.476;2023-09-08T00:01:37;10.37;;;9.77;;
16393;SDS011;8306;51.128;4.476;2023-09-08T00:04:04;10.90;;;10.10;;
16393;SDS011;8306;51.128;4.476;2023-09-08T00:06:30;9.90;;;9.30;;
16393;SDS011;8306;51.128;4.476;2023-09-08T00:08:57;11.80;;;11.10;;
16393;SDS011;8306;51.128;4.476;2023-09-08T00:11:23;10.57;;;9.73;;
16393;SDS011;8306;51.128;4.476;2023-09-08T00:13:50;10.87;;;10.17;;
16393;SDS011;8306;51.128;4.476;2023-09-08T00:16:16;10.43;;;9.83;;
16393;SDS011;8306;51.128;4.476;2023-09-08T00:18:43;10.30;;;9.70;;
16393;SDS011;8306;51.128;4.476;2023-09-08T00:21:09;10.50;;;9.90;;
16393;SDS011;8306;51.128;4.476;2023-09-08T00:23:37;10.03;;;9.43;;
16393;SDS011;8306;51.128;4.476;2023-09-08T00:26:02;11.07;;;10.37;;
16393;SDS011;8306;51.128;4.476;2023-09-08T00:28:29;9.80;;;9.30;;
16393;SDS011;8306;51.128;4.476;2023-09-08T00:30:55;10.23;;;9.53;;
16393;SDS011;8306;51.128;4.476;2023-09-08T00:33:22;9.87;;;9.37;;
16393;SDS011;8306;51.128;4.476;2023-09-08T00:35:48;10.00;;;9.20;;
16393;SDS011;8306;51.128;4.476;2023-09-08T00:38:15;9.83;;;9.23;;
16393;SDS011;8306;51.128;4.476;2023-09-08T00:40:41;10.17;;;9.57;;
16393;SDS011;8306;51.128;4.476;2023-09-08T00:43:07;9.93;;;9.30;;
16393;SDS011;8306;51.128;4.476;2023-09-08T00:45:35;10.07;;;9.37;;
16393;SDS011;8306;51.128;4.476;2023-09-08T00:48:00;9.93;;;9.33;;
16393;SDS011;8306;51.128;4.476;2023-09-08T00:50:27;9.30;;;8.80;;
16393;SDS011;8306;51.128;4.476;2023-09-08T00:52:53;10.20;;;9.47;;
16393;SDS011;8306;51.128;4.476;2023-09-08T00:55:20;10.67;;;9.83;;
16393;SDS011;8306;51.128;4.476;2023-09-08T00:57:46;9.57;;;8.97;;
16393;SDS011;8306;51.128;4.476;2023-09-08T01:00:13;9.67;;;9.07;;
16393;SDS011;8306;51.128;4.476;2023-09-08T01:02:39;10.53;;;9.73;;
16393;SDS011;8306;51.128;4.476;2023-09-08T01:05:06;9.40;;;8.87;;
16393;SDS011;8306;51.128;4.476;2023-09-08T01:07:32;10.13;;;9.37;;
16393;SDS011;8306;51.128;4.476;2023-09-08T01:09:59;10.27;;;9.47;;
16393;SDS011;8306;51.128;4.476;2023-09-08T01:12:25;10.73;;;10.13;;
16393;SDS011;8306;51.128;4.476;2023-09-08T01:14:52;10.70;;;10.00;;
16393;SDS011;8306;51.128;4.476;2023-09-08T01:17:18;10.50;;;9.80;;
16393;SDS011;8306;51.128;4.476;2023-09-08T01:19:45;10.80;;;10.10;;
16393;SDS011;8306;51.128;4.476;2023-09-08T01:22:15;10.10;;;9.40;;
16393;SDS011;8306;51.128;4.476;2023-09-08T01:27:28;10.40;;;9.70;;
16393;SDS011;8306;51.128;4.476;2023-09-08T01:29:54;9.47;;;8.87;;
16393;SDS011;8306;51.128;4.476;2023-09-08T01:32:21;10.27;;;9.60;;
16393;SDS011;8306;51.128;4.476;2023-09-08T01:34:47;11.00;;;10.30;;
16393;SDS011;8306;51.128;4.476;2023-09-08T01:37:14;10.47;;;9.77;;
16393;SDS011;8306;51.128;4.476;2023-09-08T01:39:40;9.90;;;9.37;;
16393;SDS011;8306;51.128;4.476;2023-09-08T01:42:07;10.97;;;10.30;;
16393;SDS011;8306;51.128;4.476;2023-09-08T01:44:33;10.30;;;9.70;;
16393;SDS011;8306;51.128;4.476;2023-09-08T01:47:00;10.53;;;9.63;;
16393;SDS011;8306;51.128;4.476;2023-09-08T01:49:26;9.87;;;9.27;;
16393;SDS011;8306;51.128;4.476;2023-09-08T01:51:53;9.90;;;9.30;;
16393;SDS011;8306;51.128;4.476;2023-09-08T01:54:19;10.53;;;9.80;;
16393;SDS011;8306;51.128;4.476;2023-09-08T01:56:46;10.20;;;9.60;;
16393;SDS011;8306;51.128;4.476;2023-09-08T01:59:12;10.23;;;9.53;;
16393;SDS011;8306;51.128;4.476;2023-09-08T02:01:39;11.63;;;10.77;;
16393;SDS011;8306;51.128;4.476;2023-09-08T02:04:05;11.07;;;10.37;;
16393;SDS011;8306;51.128;4.476;2023-09-08T02:06:32;10.50;;;9.90;;
16393;SDS011;8306;51.128;4.476;2023-09-08T02:08:58;10.70;;;10.00;;
16393;SDS011;8306;51.128;4.476;2023-09-08T02:11:25;9.77;;;9.20;;
16393;SDS011;8306;51.128;4.476;2023-09-08T02:13:51;10.17;;;9.37;;
16393;SDS011;8306;51.128;4.476;2023-09-08T02:16:17;10.27;;;9.63;;
16393;SDS011;8306;51.128;4.476;2023-09-08T02:18:44;10.47;;;9.77;;
16393;SDS011;8306;51.128;4.476;2023-09-08T02:21:11;10.50;;;9.80;;
16393;SDS011;8306;51.128;4.476;2023-09-08T02:23:37;10.20;;;9.50;;
16393;SDS011;8306;51.128;4.476;2023-09-08T02:26:03;9.47;;;8.87;;
16393;SDS011;8306;51.128;4.476;2023-09-08T02:28:30;10.53;;;9.93;;
16393;SDS011;8306;51.128;4.476;2023-09-08T02:30:56;10.97;;;10.37;;
16393;SDS011;8306;51.128;4.476;2023-09-08T02:33:23;10.27;;;9.57;;
16393;SDS011;8306;51.128;4.476;2023-09-08T02:35:49;10.40;;;9.70;;
16393;SDS011;8306;51.128;4.476;2023-09-08T02:38:16;10.17;;;9.57;;
16393;SDS011;8306;51.128;4.476;2023-09-08T02:40:42;11.03;;;10.23;;
16393;SDS011;8306;51.128;4.476;2023-09-08T02:43:09;11.23;;;10.23;;
16393;SDS011;8306;51.128;4.476;2023-09-08T02:45:35;10.60;;;9.90;;
16393;SDS011;8306;51.128;4.476;2023-09-08T02:48:02;12.10;;;11.10;;
16393;SDS011;8306;51.128;4.476;2023-09-08T02:50:29;11.17;;;10.47;;
16393;SDS011;8306;51.128;4.476;2023-09-08T02:52:55;10.60;;;9.90;;
16393;SDS011;8306;51.128;4.476;2023-09-08T02:55:22;10.73;;;10.13;;
16393;SDS011;8306;51.128;4.476;2023-09-08T02:57:48;11.43;;;10.63;;
16393;SDS011;8306;51.128;4.476;2023-09-08T03:00:15;10.63;;;9.93;;
16393;SDS011;8306;51.128;4.476;2023-09-08T03:02:41;10.50;;;9.83;;
16393;SDS011;8306;51.128;4.476;2023-09-08T03:05:08;11.77;;;10.97;;
16393;SDS011;8306;51.128;4.476;2023-09-08T03:07:43;9.93;;;9.40;;
16393;SDS011;8306;51.128;4.476;2023-09-08T03:10:01;10.97;;;10.27;;
16393;SDS011;8306;51.128;4.476;2023-09-08T03:12:27;11.60;;;10.90;;
16393;SDS011;8306;51.128;4.476;2023-09-08T03:14:54;12.20;;;11.40;;
16393;SDS011;8306;51.128;4.476;2023-09-08T03:17:20;10.60;;;10.00;;
16393;SDS011;8306;51.128;4.476;2023-09-08T03:19:47;11.13;;;10.33;;
16393;SDS011;8306;51.128;4.476;2023-09-08T03:22:13;10.37;;;9.77;;
16393;SDS011;8306;51.128;4.476;2023-09-08T03:24:39;11.63;;;10.90;;
16393;SDS011;8306;51.128;4.476;2023-09-08T03:27:06;10.63;;;9.93;;
16393;SDS011;8306;51.128;4.476;2023-09-08T03:29:32;12.00;;;11.30;;
16393;SDS011;8306;51.128;4.476;2023-09-08T03:31:59;11.00;;;10.30;;
16393;SDS011;8306;51.128;4.476;2023-09-08T03:34:25;12.83;;;12.03;;
16393;SDS011;8306;51.128;4.476;2023-09-08T03:36:53;11.70;;;11.00;;
16393;SDS011;8306;51.128;4.476;2023-09-08T03:39:18;11.10;;;10.30;;
16393;SDS011;8306;51.128;4.476;2023-09-08T03:41:45;12.27;;;11.43;;
16393;SDS011;8306;51.128;4.476;2023-09-08T03:44:11;11.40;;;10.70;;
16393;SDS011;8306;51.128;4.476;2023-09-08T03:46:38;11.70;;;11.03;;
16393;SDS011;8306;51.128;4.476;2023-09-08T03:49:04;11.23;;;10.43;;
16393;SDS011;8306;51.128;4.476;2023-09-08T03:51:31;11.50;;;10.70;;
16393;SDS011;8306;51.128;4.476;2023-09-08T03:53:57;10.50;;;9.90;;
16393;SDS011;8306;51.128;4.476;2023-09-08T03:56:24;11.10;;;10.40;;
16393;SDS011;8306;51.128;4.476;2023-09-08T03:58:51;10.60;;;10.00;;
16393;SDS011;8306;51.128;4.476;2023-09-08T04:01:17;10.80;;;10.20;;
16393;SDS011;8306;51.128;4.476;2023-09-08T04:03:43;11.17;;;10.47;;
16393;SDS011;8306;51.128;4.476;2023-09-08T04:06:10;11.03;;;10.33;;
16393;SDS011;8306;51.128;4.476;2023-09-08T04:08:36;10.37;;;9.77;;
16393;SDS011;8306;51.128;4.476;2023-09-08T04:11:03;9.83;;;9.27;;
16393;SDS011;8306;51.128;4.476;2023-09-08T04:13:29;10.17;;;9.57;;
16393;SDS011;8306;51.128;4.476;2023-09-08T04:15:56;11.30;;;10.50;;
16393;SDS011;8306;51.128;4.476;2023-09-08T04:18:22;10.83;;;10.03;;
16393;SDS011;8306;51.128;4.476;2023-09-08T04:20:49;11.07;;;10.10;;
16393;SDS011;8306;51.128;4.476;2023-09-08T04:23:15;10.80;;;10.20;;
16393;SDS011;8306;51.128;4.476;2023-09-08T04:25:42;10.50;;;9.90;;
16393;SDS011;8306;51.128;4.476;2023-09-08T04:28:08;10.73;;;10.03;;
16393;SDS011;8306;51.128;4.476;2023-09-08T04:30:35;10.90;;;10.20;;
16393;SDS011;8306;51.128;4.476;2023-09-08T04:33:01;10.97;;;10.23;;
16393;SDS011;8306;51.128;4.476;2023-09-08T04:35:27;11.43;;;10.73;;
16393;SDS011;8306;51.128;4.476;2023-09-08T04:37:54;11.70;;;10.67;;
16393;SDS011;8306;51.128;4.476;2023-09-08T04:40:20;11.40;;;10.70;;
16393;SDS011;8306;51.128;4.476;2023-09-08T04:42:47;11.60;;;10.80;;
16393;SDS011;8306;51.128;4.476;2023-09-08T04:45:13;11.70;;;11.00;;
16393;SDS011;8306;51.128;4.476;2023-09-08T04:47:40;12.20;;;11.50;;
16393;SDS011;8306;51.128;4.476;2023-09-08T04:50:06;10.80;;;10.20;;
16393;SDS011;8306;51.128;4.476;2023-09-08T04:52:33;11.07;;;10.40;;
16393;SDS011;8306;51.128;4.476;2023-09-08T04:54:59;10.03;;;9.53;;
16393;SDS011;8306;51.128;4.476;2023-09-08T04:57:26;10.13;;;9.53;;
16393;SDS011;8306;51.128;4.476;2023-09-08T04:59:52;11.40;;;10.50;;
16393;SDS011;8306;51.128;4.476;2023-09-08T05:02:19;11.63;;;10.83;;
16393;SDS011;8306;51.128;4.476;2023-09-08T05:04:45;11.07;;;10.27;;
16393;SDS011;8306;51.128;4.476;2023-09-08T05:07:12;10.40;;;9.80;;
16393;SDS011;8306;51.128;4.476;2023-09-08T05:09:38;10.60;;;9.90;;
16393;SDS011;8306;51.128;4.476;2023-09-08T05:12:05;11.43;;;10.73;;
16393;SDS011;8306;51.128;4.476;2023-09-08T05:14:31;10.83;;;10.13;;
16393;SDS011;8306;51.128;4.476;2023-09-08T05:16:58;10.80;;;10.17;;
16393;SDS011;8306;51.128;4.476;2023-09-08T05:19:24;11.03;;;10.33;;
16393;SDS011;8306;51.128;4.476;2023-09-08T05:21:51;11.27;;;10.57;;
16393;SDS011;8306;51.128;4.476;2023-09-08T05:24:17;10.73;;;9.87;;
16393;SDS011;8306;51.128;4.476;2023-09-08T05:26:44;10.87;;;10.17;;
16393;SDS011;8306;51.128;4.476;2023-09-08T05:29:10;10.63;;;9.93;;
16393;SDS011;8306;51.128;4.476;2023-09-08T05:31:37;11.60;;;10.80;;
16393;SDS011;8306;51.128;4.476;2023-09-08T05:34:03;10.77;;;10.07;;
16393;SDS011;8306;51.128;4.476;2023-09-08T05:36:30;10.37;;;9.60;;
16393;SDS011;8306;51.128;4.476;2023-09-08T05:38:56;9.60;;;8.90;;
16393;SDS011;8306;51.128;4.476;2023-09-08T05:41:23;10.33;;;9.63;;
16393;SDS011;8306;51.128;4.476;2023-09-08T05:43:49;7.87;;;7.40;;
16393;SDS011;8306;51.128;4.476;2023-09-08T05:46:15;7.57;;;7.17;;
16393;SDS011;8306;51.128;4.476;2023-09-08T05:48:42;8.00;;;7.50;;
16393;SDS011;8306;51.128;4.476;2023-09-08T05:51:08;7.50;;;6.90;;
16393;SDS011;8306;51.128;4.476;2023-09-08T05:53:35;8.13;;;7.33;;
16393;SDS011;8306;51.128;4.476;2023-09-08T05:56:01;7.03;;;6.63;;
16393;SDS011;8306;51.128;4.476;2023-09-08T05:58:28;7.17;;;6.57;;
16393;SDS011;8306;51.128;4.476;2023-09-08T06:00:54;7.17;;;6.67;;
16393;SDS011;8306;51.128;4.476;2023-09-08T06:03:21;7.13;;;6.63;;
16393;SDS011;8306;51.128;4.476;2023-09-08T06:05:47;7.53;;;7.07;;
16393;SDS011;8306;51.128;4.476;2023-09-08T06:08:14;6.90;;;6.50;;
16393;SDS011;8306;51.128;4.476;2023-09-08T06:10:40;8.27;;;7.50;;
16393;SDS011;8306;51.128;4.476;2023-09-08T06:13:07;7.43;;;6.83;;
16393;SDS011;8306;51.128;4.476;2023-09-08T06:15:33;7.97;;;7.40;;
16393;SDS011;8306;51.128;4.476;2023-09-08T06:18:00;7.80;;;7.20;;
16393;SDS011;8306;51.128;4.476;2023-09-08T06:20:26;7.67;;;7.00;;
16393;SDS011;8306;51.128;4.476;2023-09-08T06:22:53;7.20;;;6.80;;
16393;SDS011;8306;51.128;4.476;2023-09-08T06:25:19;7.33;;;6.93;;
16393;SDS011;8306;51.128;4.476;2023-09-08T06:27:46;7.00;;;6.50;;
16393;SDS011;8306;51.128;4.476;2023-09-08T06:30:12;8.48;;;7.97;;
16393;SDS011;8306;51.128;4.476;2023-09-08T06:32:39;7.62;;;7.03;;
16393;SDS011;8306;51.128;4.476;2023-09-08T06:35:05;7.57;;;7.12;;
16393;SDS011;8306;51.128;4.476;2023-09-08T06:37:37;7.30;;;6.90;;
16393;SDS011;8306;51.128;4.476;2023-09-08T06:40:04;7.25;;;6.72;;
16393;SDS011;8306;51.128;4.476;2023-09-08T06:42:30;7.28;;;6.78;;
16393;SDS011;8306;51.128;4.476;2023-09-08T06:44:57;7.22;;;6.78;;
16393;SDS011;8306;51.128;4.476;2023-09-08T06:47:23;7.12;;;6.62;;
16393;SDS011;8306;51.128;4.476;2023-09-08T06:49:50;6.68;;;5.97;;
16393;SDS011;8306;51.128;4.476;2023-09-08T06:52:17;8.45;;;7.78;;
16393;SDS011;8306;51.128;4.476;2023-09-08T06:54:43;8.32;;;7.72;;
16393;SDS011;8306;51.128;4.476;2023-09-08T06:57:09;7.28;;;6.78;;
16393;SDS011;8306;51.128;4.476;2023-09-08T06:59:36;7.45;;;6.95;;
16393;SDS011;8306;51.128;4.476;2023-09-08T07:02:02;6.95;;;6.55;;
16393;SDS011;8306;51.128;4.476;2023-09-08T07:04:29;7.47;;;6.90;;
16393;SDS011;8306;51.128;4.476;2023-09-08T07:06:55;7.90;;;7.40;;
16393;SDS011;8306;51.128;4.476;2023-09-08T07:09:22;7.37;;;6.93;;
16393;SDS011;8306;51.128;4.476;2023-09-08T07:11:48;9.57;;;8.98;;
16393;SDS011;8306;51.128;4.476;2023-09-08T07:14:15;7.95;;;7.50;;
16393;SDS011;8306;51.128;4.476;2023-09-08T07:16:41;8.30;;;7.70;;
16393;SDS011;8306;51.128;4.476;2023-09-08T07:19:08;8.95;;;8.40;;
16393;SDS011;8306;51.128;4.476;2023-09-08T07:21:34;8.60;;;7.90;;
16393;SDS011;8306;51.128;4.476;2023-09-08T07:24:01;8.77;;;8.23;;
16393;SDS011;8306;51.128;4.476;2023-09-08T07:26:27;8.05;;;7.60;;
16393;SDS011;8306;51.128;4.476;2023-09-08T07:28:54;8.25;;;7.65;;
16393;SDS011;8306;51.128;4.476;2023-09-08T07:31:20;8.90;;;8.30;;
16393;SDS011;8306;51.128;4.476;2023-09-08T07:33:47;7.35;;;6.80;;
16393;SDS011;8306;51.128;4.476;2023-09-08T07:36:13;9.25;;;8.20;;
16393;SDS011;8306;51.128;4.476;2023-09-08T07:38:42;8.55;;;7.90;;
16393;SDS011;8306;51.128;4.476;2023-09-08T07:41:06;7.68;;;6.95;;
16393;SDS011;8306;51.128;4.476;2023-09-08T07:43:33;8.13;;;7.53;;
16393;SDS011;8306;51.128;4.476;2023-09-08T07:45:59;8.95;;;8.13;;
16393;SDS011;8306;51.128;4.476;2023-09-08T07:48:26;8.82;;;8.23;;
16393;SDS011;8306;51.128;4.476;2023-09-08T07:50:52;8.75;;;8.05;;
16393;SDS011;8306;51.128;4.476;2023-09-08T07:53:19;7.18;;;6.65;;
16393;SDS011;8306;51.128;4.476;2023-09-08T07:55:45;6.87;;;6.37;;
16393;SDS011;8306;51.128;4.476;2023-09-08T07:58:11;7.90;;;7.40;;
16393;SDS011;8306;51.128;4.476;2023-09-08T08:00:38;8.13;;;7.55;;
16393;SDS011;8306;51.128;4.476;2023-09-08T08:03:04;7.55;;;7.03;;
16393;SDS011;8306;51.128;4.476;2023-09-08T08:05:31;7.68;;;7.07;;
16393;SDS011;8306;51.128;4.476;2023-09-08T08:07:57;8.93;;;8.32;;
16393;SDS011;8306;51.128;4.476;2023-09-08T08:10:24;8.25;;;7.72;;
16393;SDS011;8306;51.128;4.476;2023-09-08T08:12:50;8.02;;;7.53;;
16393;SDS011;8306;51.128;4.476;2023-09-08T08:15:18;8.30;;;7.80;;
16393;SDS011;8306;51.128;4.476;2023-09-08T08:17:43;8.10;;;7.50;;
16393;SDS011;8306;51.128;4.476;2023-09-08T08:20:10;8.52;;;8.02;;
16393;SDS011;8306;51.128;4.476;2023-09-08T08:22:36;7.70;;;7.20;;
16393;SDS011;8306;51.128;4.476;2023-09-08T08:25:03;8.30;;;7.60;;
16393;SDS011;8306;51.128;4.476;2023-09-08T08:27:29;8.18;;;7.57;;
16393;SDS011;8306;51.128;4.476;2023-09-08T08:29:56;7.70;;;7.22;;
16393;SDS011;8306;51.128;4.476;2023-09-08T08:32:22;6.55;;;6.15;;
16393;SDS011;8306;51.128;4.476;2023-09-08T08:34:49;7.87;;;7.20;;
16393;SDS011;8306;51.128;4.476;2023-09-08T08:37:15;7.60;;;7.12;;
16393;SDS011;8306;51.128;4.476;2023-09-08T08:39:42;8.90;;;8.40;;
16393;SDS011;8306;51.128;4.476;2023-09-08T08:42:11;8.45;;;7.62;;
16393;SDS011;8306;51.128;4.476;2023-09-08T08:44:38;8.45;;;7.95;;
16393;SDS011;8306;51.128;4.476;2023-09-08T08:47:06;7.82;;;7.12;;
16393;SDS011;8306;51.128;4.476;2023-09-08T08:49:31;7.75;;;7.15;;
16393;SDS011;8306;51.128;4.476;2023-09-08T08:51:57;7.05;;;6.57;;
16393;SDS011;8306;51.128;4.476;2023-09-08T08:54:24;7.82;;;7.30;;
16393;SDS011;8306;51.128;4.476;2023-09-08T08:56:50;7.30;;;6.70;;
16393;SDS011;8306;51.128;4.476;2023-09-08T08:59:17;7.50;;;7.10;;
16393;SDS011;8306;51.128;4.476;2023-09-08T09:01:43;7.60;;;7.00;;
16393;SDS011;8306;51.128;4.476;2023-09-08T09:04:10;6.25;;;5.95;;
16393;SDS011;8306;51.128;4.476;2023-09-08T09:06:36;8.23;;;7.72;;
16393;SDS011;8306;51.128;4.476;2023-09-08T09:09:03;7.57;;;6.93;;
16393;SDS011;8306;51.128;4.476;2023-09-08T09:11:32;7.53;;;7.05;;
16393;SDS011;8306;51.128;4.476;2023-09-08T09:13:58;7.40;;;6.90;;
16393;SDS011;8306;51.128;4.476;2023-09-08T09:16:25;7.47;;;6.78;;
16393;SDS011;8306;51.128;4.476;2023-09-08T09:18:54;7.70;;;7.20;;
16393;SDS011;8306;51.128;4.476;2023-09-08T09:21:24;7.68;;;7.28;;
16393;SDS011;8306;51.128;4.476;2023-09-08T09:23:50;7.40;;;7.00;;
16393;SDS011;8306;51.128;4.476;2023-09-08T09:26:25;7.55;;;6.93;;
16393;SDS011;8306;51.128;4.476;2023-09-08T09:28:52;6.50;;;6.00;;
16393;SDS011;8306;51.128;4.476;2023-09-08T09:31:18;7.00;;;6.40;;
16393;SDS011;8306;51.128;4.476;2023-09-08T09:33:45;6.18;;;5.78;;
16393;SDS011;8306;51.128;4.476;2023-09-08T09:36:19;6.70;;;6.30;;
16393;SDS011;8306;51.128;4.476;2023-09-08T09:38:38;6.57;;;6.18;;
16393;SDS011;8306;51.128;4.476;2023-09-08T09:41:04;6.20;;;5.90;;
16393;SDS011;8306;51.128;4.476;2023-09-08T09:43:31;6.68;;;6.10;;
16393;SDS011;8306;51.128;4.476;2023-09-08T09:45:57;6.60;;;6.20;;
16393;SDS011;8306;51.128;4.476;2023-09-08T09:48:24;6.20;;;5.87;;
16393;SDS011;8306;51.128;4.476;2023-09-08T09:50:50;7.20;;;6.45;;
16393;SDS011;8306;51.128;4.476;2023-09-08T09:53:18;7.35;;;6.95;;
16393;SDS011;8306;51.128;4.476;2023-09-08T09:55:43;6.40;;;6.10;;
16393;SDS011;8306;51.128;4.476;2023-09-08T09:58:10;6.80;;;6.40;;
16393;SDS011;8306;51.128;4.476;2023-09-08T10:00:36;6.37;;;5.87;;
16393;SDS011;8306;51.128;4.476;2023-09-08T10:03:05;6.30;;;5.80;;
16393;SDS011;8306;51.128;4.476;2023-09-08T10:05:32;5.78;;;5.37;;
16393;SDS011;8306;51.128;4.476;2023-09-08T10:07:58;5.97;;;5.50;;
16393;SDS011;8306;51.128;4.476;2023-09-08T10:10:25;6.78;;;5.62;;
16393;SDS011;8306;51.128;4.476;2023-09-08T10:12:55;5.82;;;5.43;;
16393;SDS011;8306;51.128;4.476;2023-09-08T10:15:21;6.10;;;5.60;;
16393;SDS011;8306;51.128;4.476;2023-09-08T10:17:51;6.20;;;5.87;;
16393;SDS011;8306;51.128;4.476;2023-09-08T10:20:14;5.55;;;5.15;;
16393;SDS011;8306;51.128;4.476;2023-09-08T10:22:41;6.07;;;5.68;;
16393;SDS011;8306;51.128;4.476;2023-09-08T10:25:07;6.68;;;5.97;;
16393;SDS011;8306;51.128;4.476;2023-09-08T10:27:33;6.30;;;5.90;;
16393;SDS011;8306;51.128;4.476;2023-09-08T10:30:00;6.15;;;5.80;;
16393;SDS011;8306;51.128;4.476;2023-09-08T10:32:26;6.43;;;5.97;;
16393;SDS011;8306;51.128;4.476;2023-09-08T10:34:53;6.57;;;6.18;;
16393;SDS011;8306;51.128;4.476;2023-09-08T10:39:46;7.20;;;5.85;;
16393;SDS011;8306;51.128;4.476;2023-09-08T10:47:14;5.85;;;5.55;;
16393;SDS011;8306;51.128;4.476;2023-09-08T10:49:40;6.60;;;6.10;;
16393;SDS011;8306;51.128;4.476;2023-09-08T10:52:10;6.60;;;6.20;;
16393;SDS011;8306;51.128;4.476;2023-09-08T10:54:42;7.53;;;6.93;;
16393;SDS011;8306;51.128;4.476;2023-09-08T10:57:18;6.60;;;6.05;;
16393;SDS011;8306;51.128;4.476;2023-09-08T10:59:53;6.03;;;5.60;;
16393;SDS011;8306;51.128;4.476;2023-09-08T11:02:35;6.45;;;5.60;;
16393;SDS011;8306;51.128;4.476;2023-09-08T11:05:10;6.68;;;6.07;;
16393;SDS011;8306;51.128;4.476;2023-09-08T11:07:38;6.87;;;6.28;;
16393;SDS011;8306;51.128;4.476;2023-09-08T11:10:05;7.00;;;6.30;;
16393;SDS011;8306;51.128;4.476;2023-09-08T11:12:32;6.03;;;5.68;;
16393;SDS011;8306;51.128;4.476;2023-09-08T11:14:58;5.12;;;4.70;;
16393;SDS011;8306;51.128;4.476;2023-09-08T11:17:27;5.25;;;4.85;;
16393;SDS011;8306;51.128;4.476;2023-09-08T11:19:54;5.50;;;5.00;;
16393;SDS011;8306;51.128;4.476;2023-09-08T11:22:21;8.07;;;4.78;;
16393;SDS011;8306;51.128;4.476;2023-09-08T11:24:47;4.60;;;4.20;;
16393;SDS011;8306;51.128;4.476;2023-09-08T11:27:13;4.87;;;4.47;;
16393;SDS011;8306;51.128;4.476;2023-09-08T11:29:40;5.55;;;5.07;;
16393;SDS011;8306;51.128;4.476;2023-09-08T11:32:09;5.15;;;4.75;;
16393;SDS011;8306;51.128;4.476;2023-09-08T11:34:36;5.90;;;5.47;;
16393;SDS011;8306;51.128;4.476;2023-09-08T11:37:11;4.93;;;4.40;;
16393;SDS011;8306;51.128;4.476;2023-09-08T11:39:38;4.85;;;4.15;;
16393;SDS011;8306;51.128;4.476;2023-09-08T11:42:04;4.05;;;3.67;;
16393;SDS011;8306;51.128;4.476;2023-09-08T11:44:30;4.70;;;4.40;;
16393;SDS011;8306;51.128;4.476;2023-09-08T11:46:57;4.25;;;3.95;;
16393;SDS011;8306;51.128;4.476;2023-09-08T11:49:23;4.05;;;3.75;;
16393;SDS011;8306;51.128;4.476;2023-09-08T11:51:50;4.68;;;4.37;;
16393;SDS011;8306;51.128;4.476;2023-09-08T11:54:16;5.65;;;4.43;;
16393;SDS011;8306;51.128;4.476;2023-09-08T11:56:43;4.20;;;3.80;;
16393;SDS011;8306;51.128;4.476;2023-09-08T11:59:09;4.05;;;3.75;;
16393;SDS011;8306;51.128;4.476;2023-09-08T12:01:36;4.37;;;3.58;;
16393;SDS011;8306;51.128;4.476;2023-09-08T12:04:02;3.67;;;3.37;;
16393;SDS011;8306;51.128;4.476;2023-09-08T12:06:29;3.40;;;3.20;;
16393;SDS011;8306;51.128;4.476;2023-09-08T12:08:55;3.90;;;3.58;;
16393;SDS011;8306;51.128;4.476;2023-09-08T12:11:21;3.80;;;3.50;;
16393;SDS011;8306;51.128;4.476;2023-09-08T12:13:48;4.43;;;3.85;;
16393;SDS011;8306;51.128;4.476;2023-09-08T12:16:20;4.00;;;3.78;;
16393;SDS011;8306;51.128;4.476;2023-09-08T12:18:48;3.78;;;3.35;;
16393;SDS011;8306;51.128;4.476;2023-09-08T12:21:13;4.10;;;3.80;;
16393;SDS011;8306;51.128;4.476;2023-09-08T12:23:49;3.90;;;3.70;;
16393;SDS011;8306;51.128;4.476;2023-09-08T12:26:15;4.10;;;3.80;;
16393;SDS011;8306;51.128;4.476;2023-09-08T12:28:44;3.55;;;3.33;;
16393;SDS011;8306;51.128;4.476;2023-09-08T12:31:12;3.78;;;3.47;;
16393;SDS011;8306;51.128;4.476;2023-09-08T12:33:37;4.00;;;3.67;;
16393;SDS011;8306;51.128;4.476;2023-09-08T12:36:10;8.32;;;3.90;;
16393;SDS011;8306;51.128;4.476;2023-09-08T12:38:39;3.75;;;3.53;;
16393;SDS011;8306;51.128;4.476;2023-09-08T12:41:05;3.92;;;3.62;;
16393;SDS011;8306;51.128;4.476;2023-09-08T12:43:32;3.90;;;3.67;;
16393;SDS011;8306;51.128;4.476;2023-09-08T12:45:58;3.50;;;3.30;;
16393;SDS011;8306;51.128;4.476;2023-09-08T12:48:25;3.70;;;3.40;;
16393;SDS011;8306;51.128;4.476;2023-09-08T12:50:51;3.97;;;3.60;;
16393;SDS011;8306;51.128;4.476;2023-09-08T12:53:18;3.65;;;3.45;;
16393;SDS011;8306;51.128;4.476;2023-09-08T12:55:53;4.70;;;4.22;;
16393;SDS011;8306;51.128;4.476;2023-09-08T12:58:19;4.20;;;3.80;;
16393;SDS011;8306;51.128;4.476;2023-09-08T13:00:46;4.28;;;3.87;;
16393;SDS011;8306;51.128;4.476;2023-09-08T13:03:12;3.70;;;3.40;;
16393;SDS011;8306;51.128;4.476;2023-09-08T13:05:39;4.47;;;4.07;;
16393;SDS011;8306;51.128;4.476;2023-09-08T13:08:05;4.12;;;3.83;;
16393;SDS011;8306;51.128;4.476;2023-09-08T13:10:32;4.70;;;4.30;;
16393;SDS011;8306;51.128;4.476;2023-09-08T13:12:58;4.80;;;4.40;;
16393;SDS011;8306;51.128;4.476;2023-09-08T13:15:25;3.90;;;3.40;;
16393;SDS011;8306;51.128;4.476;2023-09-08T13:17:51;3.85;;;3.55;;
16393;SDS011;8306;51.128;4.476;2023-09-08T13:20:18;4.60;;;4.20;;
16393;SDS011;8306;51.128;4.476;2023-09-08T13:22:44;7.70;;;3.80;;
16393;SDS011;8306;51.128;4.476;2023-09-08T13:25:10;4.37;;;3.97;;
16393;SDS011;8306;51.128;4.476;2023-09-08T13:27:37;4.03;;;3.72;;
16393;SDS011;8306;51.128;4.476;2023-09-08T13:30:10;3.70;;;3.50;;
16393;SDS011;8306;51.128;4.476;2023-09-08T13:32:39;3.97;;;3.53;;
16393;SDS011;8306;51.128;4.476;2023-09-08T13:35:05;4.40;;;4.00;;
16393;SDS011;8306;51.128;4.476;2023-09-08T13:37:32;4.20;;;3.72;;
16393;SDS011;8306;51.128;4.476;2023-09-08T13:39:58;7.43;;;3.47;;
16393;SDS011;8306;51.128;4.476;2023-09-08T13:42:24;4.05;;;3.75;;
16393;SDS011;8306;51.128;4.476;2023-09-08T13:44:51;5.55;;;3.70;;
16393;SDS011;8306;51.128;4.476;2023-09-08T13:47:17;3.83;;;3.47;;
16393;SDS011;8306;51.128;4.476;2023-09-08T13:49:44;4.18;;;3.70;;
16393;SDS011;8306;51.128;4.476;2023-09-08T13:52:10;5.90;;;3.37;;
16393;SDS011;8306;51.128;4.476;2023-09-08T13:54:37;4.40;;;3.47;;
16393;SDS011;8306;51.128;4.476;2023-09-08T13:57:03;4.85;;;3.70;;
16393;SDS011;8306;51.128;4.476;2023-09-08T13:59:30;8.40;;;3.60;;
16393;SDS011;8306;51.128;4.476;2023-09-08T14:01:56;5.85;;;3.80;;
16393;SDS011;8306;51.128;4.476;2023-09-08T14:04:25;5.72;;;3.35;;
16393;SDS011;8306;51.128;4.476;2023-09-08T14:06:52;6.97;;;3.92;;
16393;SDS011;8306;51.128;4.476;2023-09-08T14:09:18;4.07;;;3.42;;
16393;SDS011;8306;51.128;4.476;2023-09-08T14:11:45;4.47;;;3.62;;
16393;SDS011;8306;51.128;4.476;2023-09-08T14:14:11;4.97;;;3.25;;
16393;SDS011;8306;51.128;4.476;2023-09-08T14:16:38;4.28;;;3.20;;
16393;SDS011;8306;51.128;4.476;2023-09-08T14:19:04;7.78;;;3.95;;
16393;SDS011;8306;51.128;4.476;2023-09-08T14:21:31;4.25;;;3.83;;
16393;SDS011;8306;51.128;4.476;2023-09-08T14:23:57;5.15;;;3.58;;
16393;SDS011;8306;51.128;4.476;2023-09-08T14:26:24;7.62;;;3.80;;
16393;SDS011;8306;51.128;4.476;2023-09-08T14:28:50;3.67;;;3.37;;
16393;SDS011;8306;51.128;4.476;2023-09-08T14:31:17;4.57;;;3.17;;
16393;SDS011;8306;51.128;4.476;2023-09-08T14:33:43;6.18;;;3.60;;
16393;SDS011;8306;51.128;4.476;2023-09-08T14:36:10;4.78;;;4.15;;
16393;SDS011;8306;51.128;4.476;2023-09-08T14:38:36;8.27;;;4.18;;
16393;SDS011;8306;51.128;4.476;2023-09-08T14:41:02;5.47;;;4.00;;
16393;SDS011;8306;51.128;4.476;2023-09-08T14:43:29;5.85;;;3.90;;
16393;SDS011;8306;51.128;4.476;2023-09-08T14:45:55;7.65;;;4.18;;
16393;SDS011;8306;51.128;4.476;2023-09-08T14:48:24;9.07;;;4.32;;
16393;SDS011;8306;51.128;4.476;2023-09-08T14:50:51;3.95;;;3.53;;
16393;SDS011;8306;51.128;4.476;2023-09-08T14:53:17;7.18;;;3.80;;
16393;SDS011;8306;51.128;4.476;2023-09-08T14:55:44;6.28;;;3.75;;
16393;SDS011;8306;51.128;4.476;2023-09-08T14:58:10;6.28;;;3.72;;
16393;SDS011;8306;51.128;4.476;2023-09-08T15:00:40;4.03;;;3.65;;
16393;SDS011;8306;51.128;4.476;2023-09-08T15:03:06;5.95;;;3.72;;